createdAt,value
2019-01-30T00:02:28.806Z,87.41
2019-01-30T00:04:59.916Z,87.50
2019-01-30T00:07:30.372Z,87.41
2019-01-30T00:10:00.841Z,87.30
2019-01-30T00:12:31.272Z,87.49
2019-01-30T00:15:02.185Z,87.46
2019-01-30T00:17:32.658Z,87.17
2019-01-30T00:20:03.104Z,87.87
2019-01-30T00:22:33.819Z,87.63
2019-01-30T00:25:04.618Z,87.61
2019-01-30T00:27:35.130Z,87.54
2019-01-30T00:30:08.074Z,87.34
2019-01-30T00:32:38.599Z,87.49
2019-01-30T00:35:10.145Z,87.44
2019-01-30T00:37:40.853Z,87.59
2019-01-30T00:40:12.797Z,88.00
2019-01-30T00:42:43.581Z,87.48
2019-01-30T00:45:14.988Z,87.38
2019-01-30T00:47:46.995Z,87.61
2019-01-30T00:50:17.528Z,87.66
2019-01-30T00:52:48.001Z,87.48
2019-01-30T00:55:18.611Z,87.61
2019-01-30T00:57:49.475Z,87.92
2019-01-30T01:00:22.125Z,87.62
2019-01-30T01:02:52.787Z,87.80
2019-01-30T01:05:23.283Z,87.87
2019-01-30T01:07:54.273Z,87.89
2019-01-30T01:10:24.927Z,87.99
2019-01-30T01:12:55.923Z,88.22
2019-01-30T01:15:26.415Z,87.87
2019-01-30T01:17:56.819Z,88.41
2019-01-30T01:20:27.401Z,87.98
2019-01-30T01:22:57.951Z,88.01
2019-01-30T01:25:28.430Z,87.80
2019-01-30T01:27:58.930Z,87.75
2019-01-30T01:30:29.907Z,88.68
2019-01-30T01:33:00.734Z,88.38
2019-01-30T01:35:31.165Z,88.14
2019-01-30T01:38:02.554Z,88.09
2019-01-30T01:40:32.983Z,88.32
2019-01-30T01:43:03.547Z,88.10
2019-01-30T01:45:34.397Z,87.89
2019-01-30T01:48:04.908Z,87.92
2019-01-30T01:50:35.794Z,87.76
2019-01-30T01:53:06.664Z,87.83
2019-01-30T01:55:37.163Z,87.91
2019-01-30T01:58:07.591Z,87.44
2019-01-30T02:00:38.456Z,87.50
2019-01-30T02:03:08.970Z,87.96
2019-01-30T02:05:40.158Z,88.40
2019-01-30T02:08:10.870Z,87.93
2019-01-30T02:10:41.595Z,88.38
2019-01-30T02:13:12.515Z,88.11
2019-01-30T02:15:43.017Z,87.96
2019-01-30T02:18:13.671Z,88.53
2019-01-30T02:20:44.511Z,87.99
2019-01-30T02:23:15.107Z,88.23
2019-01-30T02:25:45.556Z,88.42
2019-01-30T02:28:16.076Z,88.49
2019-01-30T02:30:47.915Z,87.99
2019-01-30T02:33:18.624Z,88.11
2019-01-30T02:35:49.495Z,88.25
2019-01-30T02:38:19.969Z,88.41
2019-01-30T02:40:50.410Z,88.58
2019-01-30T02:43:22.027Z,88.19
2019-01-30T02:45:52.456Z,87.96
2019-01-30T02:48:22.974Z,88.61
2019-01-30T02:50:53.478Z,88.62
2019-01-30T02:53:24.385Z,88.90
2019-01-30T02:55:55.152Z,88.35
2019-01-30T02:58:25.521Z,88.42
2019-01-30T03:00:59.500Z,88.06
2019-01-30T03:03:28.557Z,88.58
2019-01-30T03:05:58.987Z,88.29
2019-01-30T03:08:29.470Z,88.77
2019-01-30T03:10:59.934Z,88.49
2019-01-30T03:13:30.470Z,88.29
2019-01-30T03:16:00.973Z,88.76
2019-01-30T03:18:31.493Z,88.26
2019-01-30T03:21:02.031Z,88.62
2019-01-30T03:23:32.511Z,88.64
2019-01-30T03:26:02.912Z,88.76
2019-01-30T03:28:33.255Z,88.42
2019-01-30T03:31:16.734Z,88.90
2019-01-30T03:33:35.910Z,88.46
2019-01-30T03:36:06.449Z,88.51
2019-01-30T03:38:36.867Z,88.40
2019-01-30T03:41:07.266Z,88.78
2019-01-30T03:43:37.571Z,89.08
2019-01-30T03:46:10.216Z,88.60
2019-01-30T03:48:40.275Z,88.53
2019-01-30T03:51:11.025Z,88.44
2019-01-30T03:53:41.407Z,88.79
2019-01-30T03:56:11.873Z,88.71
2019-01-30T03:58:42.179Z,88.86
2019-01-30T04:01:12.747Z,88.53
2019-01-30T04:03:44.014Z,88.19
2019-01-30T04:06:14.430Z,88.77
2019-01-30T04:08:44.820Z,89.04
2019-01-30T04:11:15.155Z,88.85
2019-01-30T04:13:45.894Z,88.84
2019-01-30T04:16:16.381Z,89.03
2019-01-30T04:18:46.734Z,88.73
2019-01-30T04:21:17.271Z,88.96
2019-01-30T04:23:47.622Z,89.31
2019-01-30T04:26:18.107Z,89.18
2019-01-30T04:28:48.567Z,88.64
2019-01-30T04:31:19.105Z,89.21
2019-01-30T04:37:00.596Z,88.61
2019-01-30T04:39:30.983Z,89.03
2019-01-30T04:42:01.384Z,88.81
2019-01-30T04:44:31.804Z,89.13
2019-01-30T04:47:02.627Z,88.64
2019-01-30T04:49:34.781Z,89.10
2019-01-30T04:52:05.107Z,88.60
2019-01-30T04:54:35.650Z,88.79
2019-01-30T04:57:06.511Z,88.88
2019-01-30T04:59:36.633Z,88.63
2019-01-30T05:02:07.020Z,89.03
2019-01-30T05:04:37.235Z,89.10
2019-01-30T05:07:07.456Z,88.57
2019-01-30T05:09:37.949Z,88.41
2019-01-30T05:12:08.325Z,88.42
2019-01-30T05:14:38.545Z,89.16
2019-01-30T05:17:09.268Z,88.99
2019-01-30T05:19:39.486Z,88.70
2019-01-30T05:22:10.059Z,88.67
2019-01-30T05:24:40.600Z,88.87
2019-01-30T05:27:10.927Z,88.80
2019-01-30T05:29:41.067Z,88.33
2019-01-30T05:32:11.416Z,88.81
2019-01-30T05:34:41.542Z,88.14
2019-01-30T05:37:11.881Z,88.75
2019-01-30T05:39:42.100Z,88.41
2019-01-30T05:42:12.505Z,88.86
2019-01-30T05:44:42.854Z,88.69
2019-01-30T05:47:13.491Z,88.70
2019-01-30T05:49:43.771Z,88.72
2019-01-30T05:52:14.171Z,88.76
2019-01-30T05:54:44.369Z,88.97
2019-01-30T05:57:14.892Z,88.87
2019-01-30T05:59:45.051Z,88.48
2019-01-30T06:02:15.880Z,88.68
2019-01-30T06:04:46.287Z,88.98
2019-01-30T06:07:16.523Z,88.81
2019-01-30T06:09:46.657Z,88.45
2019-01-30T06:12:16.998Z,88.41
2019-01-30T06:14:47.241Z,88.16
2019-01-30T06:17:17.512Z,87.95
2019-01-30T06:19:48.134Z,87.94
2019-01-30T06:22:18.377Z,87.76
2019-01-30T06:24:48.596Z,87.97
2019-01-30T06:27:19.689Z,87.36
2019-01-30T06:30:10.698Z,87.12
2019-01-30T06:32:41.333Z,87.11
2019-01-30T06:35:12.096Z,86.84
2019-01-30T06:37:42.462Z,86.76
2019-01-30T06:40:34.204Z,86.67
2019-01-30T06:43:05.114Z,86.58
2019-01-30T06:45:35.718Z,86.12
2019-01-30T06:48:07.531Z,86.26
2019-01-30T06:50:37.841Z,86.18
2019-01-30T06:53:08.504Z,86.02
2019-01-30T06:55:38.718Z,86.05
2019-01-30T06:58:09.080Z,86.15
2019-01-30T07:00:39.388Z,85.69
2019-01-30T07:03:10.100Z,85.55
2019-01-30T07:05:40.557Z,85.27
2019-01-30T07:08:11.008Z,85.87
2019-01-30T07:10:41.586Z,85.65
2019-01-30T07:13:11.867Z,85.54
2019-01-30T07:15:42.178Z,85.38
2019-01-30T07:18:12.944Z,84.87
2019-01-30T07:20:43.468Z,85.35
2019-01-30T07:23:13.851Z,85.54
2019-01-30T07:25:44.382Z,84.68
2019-01-30T07:28:14.680Z,84.30
2019-01-30T07:30:45.030Z,84.22
2019-01-30T07:33:15.250Z,84.74
2019-01-30T07:35:45.828Z,84.24
2019-01-30T07:38:16.195Z,83.97
2019-01-30T07:40:46.484Z,84.07
2019-01-30T07:43:16.690Z,83.44
2019-01-30T07:45:46.996Z,83.99
2019-01-30T07:48:17.241Z,83.54
2019-01-30T07:50:47.662Z,83.37
2019-01-30T07:53:18.159Z,83.38
2019-01-30T07:55:48.465Z,83.15
2019-01-30T07:58:18.608Z,83.24
2019-01-30T08:00:49.074Z,82.57
2019-01-30T08:03:19.566Z,82.99
2019-01-30T08:05:49.788Z,82.57
2019-01-30T08:08:20.065Z,82.65
2019-01-30T08:10:50.735Z,82.93
2019-01-30T08:13:20.944Z,82.27
2019-01-30T08:15:51.171Z,82.22
2019-01-30T08:18:21.487Z,82.04
2019-01-30T08:20:51.709Z,81.73
2019-01-30T08:23:22.490Z,82.18
2019-01-30T08:25:52.966Z,82.35
2019-01-30T08:28:26.339Z,81.86
2019-01-30T08:30:56.901Z,81.05
2019-01-30T08:33:27.258Z,81.39
2019-01-30T08:35:57.665Z,80.93
2019-01-30T08:38:27.950Z,81.07
2019-01-30T08:40:58.325Z,80.76
2019-01-30T08:43:28.602Z,80.19
2019-01-30T08:45:59.270Z,79.92
2019-01-30T08:48:30.289Z,79.83
2019-01-30T08:51:01.327Z,79.74
2019-01-30T08:53:31.812Z,79.02
2019-01-30T08:56:02.704Z,78.86
2019-01-30T08:58:33.000Z,79.38
2019-01-30T09:01:03.223Z,78.32
2019-01-30T09:03:33.449Z,78.50
2019-01-30T09:06:03.832Z,78.94
2019-01-30T09:08:34.206Z,76.95
2019-01-30T09:11:05.131Z,76.22
2019-01-30T09:13:35.634Z,76.92
2019-01-30T09:16:06.758Z,76.11
2019-01-30T09:18:37.254Z,77.60
2019-01-30T09:21:08.090Z,78.36
2019-01-30T09:23:38.234Z,77.46
2019-01-30T09:26:08.560Z,77.68
2019-01-30T09:28:39.454Z,77.19
2019-01-30T09:31:09.808Z,76.50
2019-01-30T09:33:40.177Z,75.79
2019-01-30T09:36:10.414Z,76.27
2019-01-30T09:38:40.697Z,76.54
2019-01-30T09:41:11.454Z,76.52
2019-01-30T09:43:41.737Z,75.72
2019-01-30T09:46:11.992Z,75.74
2019-01-30T09:48:42.253Z,76.41
2019-01-30T09:51:12.792Z,76.71
2019-01-30T09:53:43.609Z,76.97
2019-01-30T09:56:15.511Z,76.78
2019-01-30T09:58:46.296Z,77.09
2019-01-30T10:01:17.262Z,77.36
2019-01-30T10:03:47.838Z,77.66
2019-01-30T10:06:18.050Z,76.46
2019-01-30T10:08:48.672Z,74.52
2019-01-30T10:11:18.781Z,74.80
2019-01-30T10:13:49.287Z,77.35
2019-01-30T10:16:19.577Z,75.07
2019-01-30T10:18:50.149Z,75.46
2019-01-30T10:21:20.520Z,74.82
2019-01-30T10:23:50.738Z,74.48
2019-01-30T10:26:21.203Z,74.92
2019-01-30T10:28:51.451Z,74.31
2019-01-30T10:31:21.998Z,75.50
2019-01-30T10:33:52.246Z,76.00
2019-01-30T10:36:22.463Z,76.87
2019-01-30T10:38:52.687Z,75.24
2019-01-30T10:41:23.273Z,74.49
2019-01-30T10:43:53.597Z,76.76
2019-01-30T10:46:24.244Z,76.49
2019-01-30T10:48:54.566Z,76.76
2019-01-30T10:51:24.878Z,74.86
2019-01-30T10:53:55.183Z,74.40
2019-01-30T10:56:25.472Z,73.91
2019-01-30T10:58:55.843Z,74.10
2019-01-30T11:01:26.417Z,74.12
2019-01-30T11:03:57.713Z,74.22
2019-01-30T11:06:28.790Z,74.72
2019-01-30T11:08:59.189Z,74.25
2019-01-30T11:11:29.875Z,74.44
2019-01-30T11:14:00.232Z,74.96
2019-01-30T11:16:30.982Z,74.93
2019-01-30T11:19:01.700Z,75.33
2019-01-30T11:21:32.127Z,75.88
2019-01-30T11:24:03.424Z,75.58
2019-01-30T11:26:36.378Z,76.68
2019-01-30T11:29:06.049Z,75.88
2019-01-30T11:31:36.478Z,75.33
2019-01-30T11:34:07.897Z,75.45
2019-01-30T11:36:38.427Z,76.27
2019-01-30T11:39:10.284Z,74.20
2019-01-30T11:41:40.594Z,74.89
2019-01-30T11:44:10.910Z,75.76
2019-01-30T11:46:41.362Z,74.92
2019-01-30T11:49:12.124Z,74.61
2019-01-30T11:51:42.505Z,75.77
2019-01-30T11:54:12.909Z,74.73
2019-01-30T11:56:44.000Z,74.52
2019-01-30T11:59:14.764Z,75.79
2019-01-30T12:01:45.188Z,73.80
2019-01-30T12:04:18.158Z,74.53
2019-01-30T12:06:48.648Z,74.04
2019-01-30T12:09:19.087Z,72.81
2019-01-30T12:11:49.991Z,71.48
2019-01-30T12:14:20.215Z,71.43
2019-01-30T12:16:50.745Z,70.63
2019-01-30T12:19:21.151Z,72.58
2019-01-30T12:21:51.629Z,72.87
2019-01-30T12:24:21.960Z,73.25
2019-01-30T12:26:52.209Z,71.92
2019-01-30T12:29:22.756Z,71.62
2019-01-30T12:31:53.042Z,70.38
2019-01-30T12:34:28.305Z,70.75
2019-01-30T12:36:56.397Z,70.09
2019-01-30T12:39:26.665Z,71.13
2019-01-30T12:41:57.324Z,70.15
2019-01-30T12:44:27.769Z,70.34
2019-01-30T12:46:58.129Z,69.46
2019-01-30T12:49:28.784Z,68.32
2019-01-30T12:51:59.749Z,67.33
2019-01-30T12:54:30.136Z,65.95
2019-01-30T12:57:00.545Z,65.02
2019-01-30T12:59:30.991Z,64.87
2019-01-30T13:02:01.481Z,65.96
2019-01-30T13:04:38.595Z,66.02
2019-01-30T13:07:04.039Z,67.15
2019-01-30T13:09:34.740Z,68.71
2019-01-30T13:12:05.643Z,68.70
2019-01-30T13:14:36.066Z,70.16
2019-01-30T13:17:06.626Z,69.65
2019-01-30T13:19:37.453Z,70.12
2019-01-30T13:22:08.112Z,69.17
2019-01-30T13:24:38.603Z,66.89
2019-01-30T13:27:09.142Z,66.54
2019-01-30T13:29:39.562Z,66.71
2019-01-30T13:32:10.011Z,65.64
2019-01-30T13:34:48.812Z,65.76
2019-01-30T13:37:12.738Z,65.62
2019-01-30T13:39:43.117Z,65.91
2019-01-30T13:42:13.925Z,65.26
2019-01-30T13:44:44.434Z,66.07
2019-01-30T13:47:15.238Z,67.33
2019-01-30T13:49:45.768Z,68.24
2019-01-30T13:52:16.175Z,69.32
2019-01-30T13:54:46.586Z,70.53
2019-01-30T13:57:17.277Z,71.87
2019-01-30T13:59:47.555Z,72.31
2019-01-30T14:02:18.055Z,72.91
2019-01-30T14:04:59.118Z,73.90
2019-01-30T14:07:20.938Z,74.13
2019-01-30T14:09:51.780Z,74.26
2019-01-30T14:12:22.212Z,74.13
2019-01-30T14:14:52.574Z,74.32
2019-01-30T14:17:22.927Z,74.61
2019-01-30T14:19:53.822Z,74.24
2019-01-30T14:22:24.579Z,73.44
2019-01-30T14:24:55.286Z,75.04
2019-01-30T14:27:25.651Z,74.87
2019-01-30T14:29:58.298Z,74.69
2019-01-30T14:32:28.613Z,75.00
2019-01-30T14:34:58.858Z,76.00
2019-01-30T14:37:29.354Z,76.83
2019-01-30T14:40:00.040Z,76.75
2019-01-30T14:42:30.484Z,76.47
2019-01-30T14:45:00.823Z,76.89
2019-01-30T14:47:31.359Z,76.91
2019-01-30T14:50:01.935Z,76.45
2019-01-30T14:52:32.327Z,76.41
2019-01-30T14:55:03.081Z,76.22
2019-01-30T14:57:33.844Z,76.52
2019-01-30T15:00:05.635Z,75.13
2019-01-30T15:02:36.423Z,76.49
2019-01-30T15:05:09.797Z,75.97
2019-01-30T15:07:40.056Z,76.57
2019-01-30T15:10:13.126Z,76.21
2019-01-30T15:12:43.494Z,75.94
2019-01-30T15:15:17.041Z,75.71
2019-01-30T15:17:47.548Z,76.39
2019-01-30T15:20:27.259Z,76.36
2019-01-30T15:22:58.480Z,76.51
2019-01-30T15:25:29.569Z,76.42
2019-01-30T15:28:01.369Z,76.02
2019-01-30T15:30:38.538Z,75.62
2019-01-30T15:33:09.388Z,74.60
2019-01-30T15:35:40.234Z,72.03
2019-01-30T15:38:13.620Z,72.33
2019-01-30T15:40:44.229Z,70.88
2019-01-30T15:43:14.655Z,70.53
2019-01-30T15:45:45.407Z,69.44
2019-01-30T15:48:15.893Z,71.33
2019-01-30T15:50:46.349Z,71.30
2019-01-30T15:53:23.187Z,70.98
2019-01-30T15:55:53.691Z,70.44
2019-01-30T15:58:24.462Z,69.47
2019-01-30T16:01:24.623Z,70.43
2019-01-30T16:03:55.028Z,70.92
2019-01-30T16:06:25.477Z,68.93
2019-01-30T16:08:55.809Z,68.30
2019-01-30T16:11:26.567Z,69.19
2019-01-30T16:13:57.099Z,69.08
2019-01-30T16:16:27.439Z,69.32
2019-01-30T16:18:58.236Z,69.64
2019-01-30T16:21:28.512Z,68.74
2019-01-30T16:23:58.866Z,68.63
2019-01-30T16:26:29.328Z,68.02
2019-01-30T16:29:00.479Z,67.42
2019-01-30T16:31:30.945Z,67.42
2019-01-30T16:34:01.592Z,67.90
2019-01-30T16:36:32.069Z,67.59
2019-01-30T16:39:02.494Z,67.88
2019-01-30T16:41:32.817Z,68.05
2019-01-30T16:44:03.353Z,67.98
2019-01-30T16:46:34.073Z,67.76
2019-01-30T16:49:04.889Z,67.67
2019-01-30T16:51:35.303Z,67.63
2019-01-30T16:54:05.862Z,68.64
2019-01-30T16:56:36.307Z,68.27
2019-01-30T16:59:07.410Z,68.56
2019-01-30T17:01:37.783Z,68.33
2019-01-30T17:04:08.065Z,68.21
2019-01-30T17:06:38.281Z,67.34
2019-01-30T17:09:10.206Z,68.23
2019-01-30T17:11:40.560Z,68.27
2019-01-30T17:14:10.769Z,67.42
2019-01-30T17:16:41.068Z,67.35
2019-01-30T17:19:11.542Z,66.85
2019-01-30T17:21:41.908Z,67.96
2019-01-30T17:24:12.121Z,68.11
2019-01-30T17:26:42.681Z,68.51
2019-01-30T17:29:12.884Z,68.92
2019-01-30T17:31:43.198Z,68.21
2019-01-30T17:34:13.757Z,67.94
2019-01-30T17:36:43.960Z,67.97
2019-01-30T17:39:14.415Z,68.01
2019-01-30T17:41:44.700Z,68.18
2019-01-30T17:44:14.815Z,68.41
2019-01-30T17:46:45.104Z,68.76
2019-01-30T17:49:15.293Z,69.21
2019-01-30T17:51:45.667Z,68.98
2019-01-30T17:54:18.206Z,67.73
2019-01-30T17:56:48.248Z,68.18
2019-01-30T17:59:18.576Z,68.36
2019-01-30T18:01:49.139Z,68.82
2019-01-30T18:04:19.678Z,68.28
2019-01-30T18:06:50.081Z,68.54
2019-01-30T18:09:20.604Z,67.80
2019-01-30T18:11:51.223Z,68.65
2019-01-30T18:14:21.725Z,67.87
2019-01-30T18:16:51.982Z,67.77
2019-01-30T18:19:22.299Z,67.13
2019-01-30T18:21:53.023Z,67.50
2019-01-30T18:24:23.420Z,67.67
2019-01-30T18:26:53.742Z,67.97
2019-01-30T18:29:23.962Z,67.51
2019-01-30T18:31:54.565Z,67.35
2019-01-30T18:34:25.097Z,67.86
2019-01-30T18:36:55.770Z,67.94
2019-01-30T18:39:25.942Z,68.34
2019-01-30T18:41:56.580Z,68.93
2019-01-30T18:44:26.793Z,67.25
2019-01-30T18:46:57.159Z,67.74
2019-01-30T18:49:27.461Z,68.54
2019-01-30T18:51:57.798Z,68.47
2019-01-30T18:54:28.490Z,67.75
2019-01-30T18:56:58.612Z,68.34
2019-01-30T18:59:28.744Z,68.67
2019-01-30T19:01:59.029Z,68.66
2019-01-30T19:04:29.236Z,69.39
2019-01-30T19:06:59.778Z,70.02
2019-01-30T19:09:30.242Z,69.25
2019-01-30T19:12:00.468Z,68.28
2019-01-30T19:14:30.604Z,68.93
2019-01-30T19:17:07.743Z,68.20
2019-01-30T19:19:38.518Z,69.31
2019-01-30T19:22:10.315Z,67.86
2019-01-30T19:24:40.735Z,68.74
2019-01-30T19:27:11.407Z,68.11
2019-01-30T19:29:41.637Z,68.92
2019-01-30T19:32:11.992Z,69.01
2019-01-30T19:34:42.537Z,69.27
2019-01-30T19:37:12.879Z,69.12
2019-01-30T19:39:43.441Z,69.56
2019-01-30T19:42:13.627Z,67.38
2019-01-30T19:44:43.783Z,67.99
2019-01-30T19:47:14.134Z,68.08
2019-01-30T19:49:44.366Z,68.82
2019-01-30T19:52:14.502Z,67.90
2019-01-30T19:54:44.757Z,68.12
2019-01-30T19:57:15.520Z,67.13
2019-01-30T19:59:45.680Z,69.33
2019-01-30T20:02:16.076Z,68.49
2019-01-30T20:04:46.220Z,68.50
2019-01-30T20:07:17.313Z,69.17
2019-01-30T20:09:47.539Z,69.35
2019-01-30T20:12:18.150Z,68.89
2019-01-30T20:14:48.527Z,69.47
2019-01-30T20:17:19.028Z,69.95
2019-01-30T20:19:49.245Z,69.99
2019-01-30T20:22:19.596Z,69.63
2019-01-30T20:24:49.876Z,70.14
2019-01-30T20:27:20.489Z,70.78
2019-01-30T20:29:50.652Z,71.12
2019-01-30T20:32:20.974Z,71.00
2019-01-30T20:34:51.102Z,70.67
2019-01-30T20:37:26.288Z,71.52
2019-01-30T20:39:53.381Z,71.32
2019-01-30T20:42:24.115Z,70.71
2019-01-30T20:44:54.385Z,72.38
2019-01-30T20:47:24.704Z,71.24
2019-01-30T20:49:54.998Z,71.73
2019-01-30T20:52:26.747Z,71.67
2019-01-30T20:54:59.866Z,72.41
2019-01-30T20:57:28.812Z,71.48
2019-01-30T20:59:59.028Z,72.14
2019-01-30T21:02:29.516Z,72.39
2019-01-30T21:04:59.722Z,72.32
2019-01-30T21:07:37.073Z,72.49
2019-01-30T21:10:02.467Z,72.53
2019-01-30T21:12:32.808Z,72.78
2019-01-30T21:15:03.520Z,73.64
2019-01-30T21:17:33.733Z,74.39
2019-01-30T21:20:05.093Z,74.73
2019-01-30T21:22:35.608Z,75.12
2019-01-30T21:25:10.158Z,75.13
2019-01-30T21:27:40.530Z,76.22
2019-01-30T21:30:13.965Z,76.73
2019-01-30T21:32:44.172Z,76.44
2019-01-30T21:35:14.533Z,76.62
2019-01-30T21:37:48.931Z,76.88
2019-01-30T21:40:18.263Z,77.07
2019-01-30T21:42:48.793Z,77.57
2019-01-30T21:45:21.341Z,76.86
2019-01-30T21:47:51.990Z,77.22
2019-01-30T21:50:22.629Z,77.25
2019-01-30T21:52:52.858Z,77.47
2019-01-30T21:55:24.697Z,77.78
2019-01-30T21:57:54.988Z,77.78
2019-01-30T22:00:30.039Z,78.48
2019-01-30T22:03:00.411Z,79.39
2019-01-30T22:05:30.794Z,80.28
2019-01-30T22:08:01.641Z,80.69
2019-01-30T22:10:32.084Z,81.42
2019-01-30T22:13:02.385Z,81.90
2019-01-30T22:15:33.237Z,81.67
2019-01-30T22:18:04.040Z,82.07
2019-01-30T22:20:34.392Z,82.35
2019-01-30T22:23:05.568Z,83.00
2019-01-30T22:25:35.934Z,82.66
2019-01-30T22:28:06.893Z,83.46
2019-01-30T22:30:37.550Z,83.72
2019-01-30T22:33:07.946Z,83.14
2019-01-30T22:35:38.233Z,83.29
2019-01-30T22:38:12.683Z,83.54
2019-01-30T22:40:41.033Z,83.12
2019-01-30T22:43:11.726Z,83.84
2019-01-30T22:45:42.984Z,83.19
2019-01-30T22:48:13.235Z,82.94
2019-01-30T22:50:43.560Z,83.58
2019-01-30T22:53:14.114Z,83.69
2019-01-30T22:55:44.425Z,85.77
2019-01-30T22:58:14.679Z,83.51
2019-01-30T23:01:28.602Z,82.97
2019-01-30T23:04:49.699Z,82.93
2019-01-30T23:08:22.645Z,83.09
2019-01-30T23:11:57.542Z,83.38
2019-01-30T23:14:39.326Z,83.97
2019-01-30T23:18:11.899Z,80.41
2019-01-30T23:20:55.124Z,81.42
2019-01-30T23:23:54.605Z,81.98
2019-01-30T23:26:38.171Z,82.67
2019-01-30T23:29:51.848Z,83.87
2019-01-30T23:33:22.172Z,84.38
2019-01-30T23:36:44.555Z,84.34
2019-01-30T23:39:36.493Z,84.23
2019-01-30T23:42:53.617Z,85.58
2019-01-30T23:45:54.326Z,85.13
2019-01-30T23:48:39.336Z,84.70
2019-01-30T23:52:13.162Z,84.41
2019-01-30T23:55:07.784Z,81.53
2019-01-30T23:58:14.051Z,81.26
